Pagrindinis puslapis
METAR-TAF:

METAR-TAF

Oro uostai :

Wasilla, Aliaska, Jungtinės Amerikos Valstijos

platuma: 61-34-19N, ilguma: 149-32-26W, Aukštis: 106 m

Dabartinis oras

Ataskaita buvo paskelbta 35 minutes, ne 22:56 UTC
Vėjas 5 kt nuo kintamojo kryptimis
Temperatūra 9°C
Drėgmė 81%
Slėgis 1008 hPa
Matomumas: 14.5 km
Mažai debesys ne aukštis 1500 ft
Apsiniaukę ne aukštis 5500 ft

METAR: PAWS 202256Z AUTO VRB05KT 9SM FEW015 OVC055 09/06 A2977 RMK AO2 SLP086 T00890056

Laikas: 15:31 (23:31 UTC)


TAF: trūkstamas

Orai ataskaitas ir orų prognozės (METAR, TAF).

turimą stotys yra geltonos ir raudonos taškus žemėlapyje.

Perkelti pele per norėdami pamatyti stoties vardą.

Tada spustelėkite, norėdami matyti oro stebėjimo ir prognozės.

Norėdami pakeisti žemėlapį: spustelėkite ant žalios mygtukų su juodo kryžiaus žemyn,; žalią mygtuką su brūkšneliu, jei norite nutolinti; arba žalių rodyklių gretimoms žemėlapius.


METAR-TAF: